createdAt,value
2023-10-23T00:01:39.699Z,11.36
2023-10-23T00:04:11.330Z,11.31
2023-10-23T00:06:42.404Z,11.30
2023-10-23T00:09:13.425Z,11.36
2023-10-23T00:11:44.180Z,11.44
2023-10-23T00:14:15.267Z,11.51
2023-10-23T00:16:46.074Z,11.52
2023-10-23T00:19:17.198Z,11.49
2023-10-23T00:21:47.992Z,11.44
2023-10-23T00:24:18.796Z,11.40
2023-10-23T00:26:49.598Z,11.36
2023-10-23T00:29:20.367Z,11.37
2023-10-23T00:31:51.108Z,11.42
2023-10-23T00:34:22.370Z,11.46
2023-10-23T00:36:53.219Z,11.53
2023-10-23T00:39:23.999Z,11.58
2023-10-23T00:41:54.805Z,11.61
2023-10-23T00:44:25.586Z,11.65
2023-10-23T00:46:56.702Z,11.70
2023-10-23T00:49:27.571Z,11.70
2023-10-23T00:51:58.850Z,11.68
2023-10-23T00:54:29.900Z,11.63
2023-10-23T00:57:00.807Z,11.53
2023-10-23T00:59:31.642Z,11.49
2023-10-23T01:02:04.515Z,11.49
2023-10-23T01:04:35.314Z,11.47
2023-10-23T01:07:06.373Z,11.48
2023-10-23T01:09:37.154Z,11.43
2023-10-23T01:12:09.483Z,11.33
2023-10-23T01:14:40.225Z,11.28
2023-10-23T01:17:10.981Z,11.27
2023-10-23T01:19:41.701Z,11.22
2023-10-23T01:22:12.496Z,11.18
2023-10-23T01:24:47.372Z,11.10
2023-10-23T01:27:18.228Z,11.04
2023-10-23T01:29:48.982Z,11.07
2023-10-23T01:32:19.732Z,11.09
2023-10-23T01:34:50.398Z,11.11
2023-10-23T01:37:21.134Z,11.11
2023-10-23T01:39:51.986Z,11.07
2023-10-23T01:42:22.938Z,11.01
2023-10-23T01:44:53.654Z,11.00
2023-10-23T01:47:24.338Z,10.98
2023-10-23T01:49:55.391Z,10.91
2023-10-23T01:52:26.074Z,10.86
2023-10-23T01:54:56.940Z,10.84
2023-10-23T01:57:27.727Z,10.83
2023-10-23T02:00:05.385Z,10.83
2023-10-23T02:02:36.232Z,10.85
2023-10-23T02:05:07.443Z,10.86
2023-10-23T02:07:38.197Z,10.82
2023-10-23T02:10:10.654Z,10.75
2023-10-23T02:12:41.428Z,10.63
2023-10-23T02:15:13.929Z,10.55
2023-10-23T02:17:45.127Z,10.46
2023-10-23T02:20:16.257Z,10.45
2023-10-23T02:22:47.023Z,10.46
2023-10-23T02:25:18.310Z,10.48
2023-10-23T02:27:49.099Z,10.49
2023-10-23T02:30:20.365Z,10.41
2023-10-23T02:32:51.127Z,10.29
2023-10-23T02:35:21.948Z,10.21
2023-10-23T02:37:52.736Z,10.13
2023-10-23T02:40:23.471Z,10.05
2023-10-23T02:42:54.281Z,10.02
2023-10-23T02:45:25.252Z,10.03
2023-10-23T02:47:56.177Z,10.05
2023-10-23T02:50:27.094Z,10.07
2023-10-23T02:52:58.595Z,10.09
2023-10-23T02:55:30.592Z,10.12
2023-10-23T02:58:01.540Z,10.19
2023-10-23T03:00:32.536Z,10.21
2023-10-23T03:03:03.440Z,10.21
2023-10-23T03:05:35.323Z,10.21
2023-10-23T03:08:07.082Z,10.19
2023-10-23T03:10:37.944Z,10.11
2023-10-23T03:13:08.711Z,10.03
2023-10-23T03:15:41.929Z,10.03
2023-10-23T03:18:12.965Z,10.05
2023-10-23T03:20:43.983Z,10.06
2023-10-23T03:23:14.756Z,10.05
2023-10-23T03:25:47.345Z,10.04
2023-10-23T03:28:18.123Z,10.03
2023-10-23T03:30:49.223Z,9.98
2023-10-23T03:33:20.044Z,9.96
2023-10-23T03:35:51.837Z,9.97
2023-10-23T03:38:22.628Z,9.95
2023-10-23T03:41:01.083Z,9.91
2023-10-23T03:43:32.079Z,9.84
2023-10-23T03:46:06.418Z,9.74
2023-10-23T03:48:39.042Z,9.69
2023-10-23T03:51:09.820Z,9.74
2023-10-23T03:53:40.602Z,9.76
2023-10-23T03:56:11.442Z,9.71
2023-10-23T03:58:42.792Z,9.65
2023-10-23T04:01:13.646Z,9.62
2023-10-23T04:03:44.706Z,9.58
2023-10-23T04:06:15.559Z,9.56
2023-10-23T04:08:46.356Z,9.62
2023-10-23T04:11:18.331Z,9.67
2023-10-23T04:13:49.291Z,9.70
2023-10-23T04:16:20.602Z,9.70
2023-10-23T04:18:51.845Z,9.67
2023-10-23T04:21:30.444Z,9.64
2023-10-23T04:24:01.311Z,9.58
2023-10-23T04:26:32.057Z,9.51
2023-10-23T04:29:02.860Z,9.47
2023-10-23T04:31:33.685Z,9.51
2023-10-23T04:34:04.579Z,9.54
2023-10-23T04:36:35.563Z,9.58
2023-10-23T04:39:06.693Z,9.57
2023-10-23T04:41:37.462Z,9.52
2023-10-23T04:44:08.889Z,9.43
2023-10-23T04:46:39.684Z,9.41
2023-10-23T04:49:10.506Z,9.45
2023-10-23T04:51:41.338Z,9.47
2023-10-23T04:54:12.894Z,9.46
2023-10-23T04:56:44.482Z,9.42
2023-10-23T04:59:15.248Z,9.36
2023-10-23T05:01:46.115Z,9.31
2023-10-23T05:04:17.047Z,9.28
2023-10-23T05:06:48.021Z,9.23
2023-10-23T05:09:19.028Z,9.19
2023-10-23T05:11:50.065Z,9.19
2023-10-23T05:14:20.806Z,9.25
2023-10-23T05:16:51.583Z,9.62
2023-10-23T05:19:23.349Z,10.10
2023-10-23T05:21:54.114Z,10.56
2023-10-23T05:24:24.934Z,10.86
2023-10-23T05:26:55.716Z,11.08
2023-10-23T05:29:26.492Z,11.09
2023-10-23T05:31:57.280Z,11.04
2023-10-23T05:34:28.102Z,10.91
2023-10-23T05:36:58.928Z,10.74
2023-10-23T05:39:29.975Z,10.50
2023-10-23T05:42:00.818Z,10.25
2023-10-23T05:44:31.660Z,10.09
2023-10-23T05:47:02.566Z,9.96
2023-10-23T05:49:35.497Z,9.84
2023-10-23T05:52:06.864Z,9.76
2023-10-23T05:54:37.678Z,9.76
2023-10-23T05:57:08.698Z,9.80
2023-10-23T05:59:39.841Z,9.83
2023-10-23T06:02:12.016Z,9.78
2023-10-23T06:04:48.446Z,9.72
2023-10-23T06:07:19.343Z,9.76
2023-10-23T06:09:50.402Z,9.81
2023-10-23T06:12:21.239Z,9.83
2023-10-23T06:14:52.017Z,9.86
2023-10-23T06:17:22.834Z,9.86
2023-10-23T06:19:53.745Z,9.88
2023-10-23T06:22:24.555Z,9.95
2023-10-23T06:24:55.773Z,10.03
2023-10-23T06:27:26.894Z,10.12
2023-10-23T06:29:57.601Z,10.19
2023-10-23T06:32:28.328Z,10.22
2023-10-23T06:34:59.036Z,10.25
2023-10-23T06:37:30.012Z,10.28
2023-10-23T06:40:00.886Z,10.34
2023-10-23T06:42:31.739Z,10.43
2023-10-23T06:45:02.671Z,10.55
2023-10-23T06:47:33.923Z,10.67
2023-10-23T06:50:06.365Z,10.80
2023-10-23T06:52:37.305Z,10.91
2023-10-23T06:55:09.835Z,10.98
2023-10-23T06:57:40.707Z,11.03
2023-10-23T07:00:13.330Z,11.08
2023-10-23T07:02:44.205Z,11.12
2023-10-23T07:05:15.008Z,11.15
2023-10-23T07:07:45.809Z,11.24
2023-10-23T07:10:16.566Z,11.38
2023-10-23T07:12:47.367Z,11.55
2023-10-23T07:15:18.269Z,11.67
2023-10-23T07:17:49.166Z,11.72
2023-10-23T07:20:20.172Z,11.76
2023-10-23T07:22:50.943Z,11.86
2023-10-23T07:25:21.748Z,11.98
2023-10-23T07:27:52.520Z,12.05
2023-10-23T07:30:25.593Z,12.11
2023-10-23T07:32:56.731Z,12.15
2023-10-23T07:35:30.018Z,12.24
2023-10-23T07:38:05.141Z,12.43
2023-10-23T07:40:35.900Z,12.66
2023-10-23T07:43:06.789Z,12.84
2023-10-23T07:45:43.310Z,12.97
2023-10-23T07:48:14.227Z,13.08
2023-10-23T07:50:45.067Z,13.18
2023-10-23T07:53:16.342Z,13.27
2023-10-23T07:55:47.105Z,13.32
2023-10-23T07:58:18.480Z,13.37
2023-10-23T08:00:52.736Z,13.42
2023-10-23T08:03:25.021Z,13.52
2023-10-23T08:05:55.977Z,13.67
2023-10-23T08:08:26.820Z,13.82
2023-10-23T08:10:57.659Z,13.94
2023-10-23T08:13:28.871Z,14.09
2023-10-23T08:16:01.383Z,14.18
2023-10-23T08:21:12.019Z,14.63
2023-10-23T08:23:43.776Z,14.86
2023-10-23T08:26:14.907Z,15.10
2023-10-23T08:31:34.200Z,15.58
2023-10-23T08:34:10.388Z,15.86
2023-10-23T08:36:41.506Z,16.11
2023-10-23T08:39:12.412Z,16.35
2023-10-23T08:41:43.344Z,16.53
2023-10-23T08:44:14.317Z,16.74
2023-10-23T08:46:45.508Z,16.90
2023-10-23T08:49:18.930Z,17.07
2023-10-23T08:51:53.759Z,17.21
2023-10-23T08:54:24.791Z,17.39
2023-10-23T08:56:59.412Z,17.52
2023-10-23T08:59:30.883Z,17.73
2023-10-23T09:02:02.400Z,17.93
2023-10-23T09:04:33.551Z,18.03
2023-10-23T09:07:04.614Z,18.21
2023-10-23T09:09:35.409Z,18.46
2023-10-23T09:12:07.596Z,18.73
2023-10-23T09:14:38.584Z,19.02
2023-10-23T09:17:10.198Z,19.22
2023-10-23T09:19:42.691Z,19.23
2023-10-23T09:22:13.795Z,19.16
2023-10-23T09:24:46.718Z,19.22
2023-10-23T09:27:18.341Z,19.32
2023-10-23T09:29:49.109Z,19.47
2023-10-23T09:32:20.012Z,19.65
2023-10-23T09:34:50.891Z,19.81
2023-10-23T09:37:21.758Z,20.00
2023-10-23T09:39:55.027Z,20.22
2023-10-23T09:42:34.457Z,20.45
2023-10-23T09:45:06.754Z,20.63
2023-10-23T09:47:37.634Z,20.80
2023-10-23T09:50:09.635Z,21.00
2023-10-23T09:52:42.182Z,21.21
2023-10-23T09:55:15.940Z,21.38
2023-10-23T09:57:52.366Z,21.51
2023-10-23T10:00:25.965Z,21.60
2023-10-23T10:03:01.452Z,21.70
2023-10-23T10:05:40.140Z,21.73
2023-10-23T10:08:15.648Z,21.62
2023-10-23T10:10:47.354Z,21.57
2023-10-23T10:13:18.446Z,21.62
2023-10-23T10:15:52.101Z,21.68
2023-10-23T10:18:24.376Z,21.72
2023-10-23T10:21:02.155Z,21.73
2023-10-23T10:23:36.305Z,21.71
2023-10-23T10:26:07.954Z,21.67
2023-10-23T10:28:41.671Z,21.71
2023-10-23T10:31:12.646Z,21.84
2023-10-23T10:34:28.202Z,21.96
2023-10-23T10:36:47.773Z,22.08
2023-10-23T10:39:19.288Z,22.08
2023-10-23T10:41:50.092Z,22.01
2023-10-23T10:44:21.769Z,21.95
2023-10-23T10:46:56.028Z,21.93
2023-10-23T10:49:27.796Z,21.93
2023-10-23T10:51:58.968Z,21.99
2023-10-23T10:54:36.008Z,22.03
2023-10-23T10:57:07.497Z,21.95
2023-10-23T10:59:41.008Z,21.86
2023-10-23T11:02:13.318Z,21.87
2023-10-23T11:04:44.230Z,21.89
2023-10-23T11:07:15.130Z,21.87
2023-10-23T11:09:46.010Z,21.82
2023-10-23T11:12:16.868Z,21.80
2023-10-23T11:14:48.465Z,21.85
2023-10-23T11:17:19.685Z,21.89
2023-10-23T11:19:50.495Z,21.94
2023-10-23T11:22:23.133Z,22.08
2023-10-23T11:24:54.160Z,22.27
2023-10-23T11:27:25.590Z,22.41
2023-10-23T11:29:56.797Z,22.45
2023-10-23T11:32:29.657Z,22.46
2023-10-23T11:35:05.471Z,22.40
2023-10-23T11:37:43.463Z,22.26
2023-10-23T11:40:20.943Z,22.10
2023-10-23T11:42:55.274Z,21.86
2023-10-23T11:45:26.300Z,21.63
2023-10-23T11:47:57.256Z,21.44
2023-10-23T11:50:30.048Z,21.26
2023-10-23T11:53:01.514Z,21.16
2023-10-23T11:55:33.597Z,21.04
2023-10-23T11:58:05.178Z,20.90
2023-10-23T12:00:39.848Z,20.76
2023-10-23T12:03:10.849Z,20.79
2023-10-23T12:05:41.733Z,20.87
2023-10-23T12:08:13.355Z,21.11
2023-10-23T12:10:44.132Z,21.47
2023-10-23T12:13:15.054Z,21.84
2023-10-23T12:15:45.918Z,22.13
2023-10-23T12:18:16.741Z,22.38
2023-10-23T12:20:47.628Z,22.64
2023-10-23T12:23:18.418Z,22.87
2023-10-23T12:25:49.180Z,23.10
2023-10-23T12:28:20.066Z,23.27
2023-10-23T12:30:51.512Z,23.32
2023-10-23T12:33:26.668Z,23.32
2023-10-23T12:36:05.199Z,23.21
2023-10-23T12:38:37.138Z,23.04
2023-10-23T12:41:08.064Z,22.95
2023-10-23T12:43:38.946Z,22.79
2023-10-23T12:46:10.638Z,22.53
2023-10-23T12:48:44.953Z,22.22
2023-10-23T12:51:16.103Z,21.85
2023-10-23T12:53:46.881Z,21.54
2023-10-23T12:56:17.684Z,21.30
2023-10-23T12:58:48.662Z,21.07
2023-10-23T13:01:19.655Z,20.88
2023-10-23T13:03:50.578Z,20.71
2023-10-23T13:06:21.510Z,20.73
2023-10-23T13:08:52.600Z,20.80
2023-10-23T13:11:23.502Z,20.85
2023-10-23T13:13:54.277Z,20.97
2023-10-23T13:16:27.409Z,21.14
2023-10-23T13:18:58.418Z,21.30
2023-10-23T13:21:34.185Z,21.53
2023-10-23T13:24:07.061Z,21.73
2023-10-23T13:26:39.299Z,21.81
2023-10-23T13:29:10.269Z,21.91
2023-10-23T13:31:41.061Z,22.02
2023-10-23T13:34:11.991Z,22.16
2023-10-23T13:36:42.834Z,22.27
2023-10-23T13:39:16.878Z,22.31
2023-10-23T13:41:48.498Z,22.24
2023-10-23T13:44:19.324Z,22.20
2023-10-23T13:46:50.232Z,22.17
2023-10-23T13:49:21.571Z,22.15
2023-10-23T13:51:52.400Z,22.16
2023-10-23T13:54:24.839Z,22.07
2023-10-23T13:56:55.575Z,21.86
2023-10-23T13:59:26.346Z,21.62
2023-10-23T14:01:57.169Z,21.45
2023-10-23T14:04:28.164Z,21.28
2023-10-23T14:06:59.036Z,21.16
2023-10-23T14:09:43.266Z,21.06
2023-10-23T14:12:16.409Z,20.92
2023-10-23T14:14:47.640Z,20.74
2023-10-23T14:17:18.503Z,20.58
2023-10-23T14:19:49.552Z,20.44
2023-10-23T14:22:20.380Z,20.32
2023-10-23T14:24:51.503Z,20.20
2023-10-23T14:27:22.426Z,20.07
2023-10-23T14:29:53.224Z,19.92
2023-10-23T14:32:24.077Z,19.79
2023-10-23T14:34:55.159Z,19.73
2023-10-23T14:37:26.275Z,19.66
2023-10-23T14:39:59.273Z,19.61
2023-10-23T14:42:31.104Z,19.56
2023-10-23T14:45:04.907Z,19.51
2023-10-23T14:47:36.209Z,19.48
2023-10-23T14:50:08.434Z,19.44
2023-10-23T14:52:39.289Z,19.42
2023-10-23T14:55:11.857Z,19.42
2023-10-23T14:57:42.719Z,19.37
2023-10-23T15:00:16.425Z,19.25
2023-10-23T15:02:47.210Z,19.08
2023-10-23T15:05:18.233Z,18.90
2023-10-23T15:07:49.020Z,18.71
2023-10-23T15:10:21.907Z,18.51
2023-10-23T15:12:52.884Z,18.32
2023-10-23T15:15:23.701Z,18.12
2023-10-23T15:17:54.637Z,18.00
2023-10-23T15:20:27.913Z,17.83
2023-10-23T15:22:58.862Z,17.69
2023-10-23T15:25:30.017Z,17.54
2023-10-23T15:28:00.852Z,17.43
2023-10-23T15:30:34.434Z,17.37
2023-10-23T15:33:06.437Z,17.31
2023-10-23T15:35:37.226Z,17.22
2023-10-23T15:38:07.983Z,17.09
2023-10-23T15:40:38.814Z,16.99
2023-10-23T15:43:09.617Z,16.89
2023-10-23T15:45:41.294Z,16.73
2023-10-23T15:48:12.139Z,16.56
2023-10-23T15:50:42.989Z,16.45
2023-10-23T15:53:13.752Z,16.29
2023-10-23T15:55:48.678Z,16.16
2023-10-23T15:58:19.382Z,16.04
2023-10-23T16:00:50.230Z,15.93
2023-10-23T16:03:21.715Z,15.86
2023-10-23T16:05:54.579Z,15.81
2023-10-23T16:08:25.306Z,15.78
2023-10-23T16:10:56.113Z,15.75
2023-10-23T16:13:31.628Z,15.72
2023-10-23T16:16:15.478Z,15.58
2023-10-23T16:18:48.034Z,15.50
2023-10-23T16:21:19.162Z,15.35
2023-10-23T16:23:50.249Z,15.22
2023-10-23T16:26:21.061Z,15.15
2023-10-23T16:28:51.750Z,15.08
2023-10-23T16:31:22.695Z,15.03
2023-10-23T16:33:53.616Z,14.98
2023-10-23T16:36:24.568Z,14.94
2023-10-23T16:38:55.323Z,14.88
2023-10-23T16:41:26.074Z,14.85
2023-10-23T16:43:56.777Z,14.83
2023-10-23T16:46:27.701Z,14.80
2023-10-23T16:48:58.580Z,14.72
2023-10-23T16:51:29.415Z,14.60
2023-10-23T16:54:00.186Z,14.48
2023-10-23T16:56:30.899Z,14.43
2023-10-23T16:59:01.822Z,14.38
2023-10-23T17:01:32.920Z,14.33
2023-10-23T17:04:03.819Z,14.32
2023-10-23T17:06:34.757Z,14.30
2023-10-23T17:09:05.675Z,14.29
2023-10-23T17:11:36.400Z,14.30
2023-10-23T17:14:07.730Z,14.27
2023-10-23T17:16:38.783Z,14.23
2023-10-23T17:19:10.293Z,14.24
2023-10-23T17:21:41.125Z,14.21
2023-10-23T17:24:12.276Z,14.16
2023-10-23T17:26:43.383Z,14.11
2023-10-23T17:29:14.090Z,14.07
2023-10-23T17:31:44.891Z,14.03
2023-10-23T17:34:15.726Z,13.99
2023-10-23T17:36:46.512Z,14.00
2023-10-23T17:39:17.184Z,13.98
2023-10-23T17:41:48.114Z,13.94
2023-10-23T17:44:19.476Z,13.94
2023-10-23T17:46:52.933Z,13.93
2023-10-23T17:49:23.964Z,13.85
2023-10-23T17:51:55.963Z,13.72
2023-10-23T17:54:26.785Z,13.65
2023-10-23T17:56:57.968Z,13.67
2023-10-23T17:59:28.718Z,13.70
2023-10-23T18:01:59.662Z,13.72
2023-10-23T18:04:30.925Z,13.75
2023-10-23T18:07:04.260Z,13.78
2023-10-23T18:09:35.098Z,13.81
2023-10-23T18:12:06.404Z,13.82
2023-10-23T18:14:37.366Z,13.78
2023-10-23T18:17:08.301Z,13.65
2023-10-23T18:19:39.413Z,13.50
2023-10-23T18:22:10.360Z,13.38
2023-10-23T18:24:41.161Z,13.31
2023-10-23T18:27:11.978Z,13.32
2023-10-23T18:29:42.792Z,13.31
2023-10-23T18:32:13.555Z,13.29
2023-10-23T18:34:44.409Z,13.33
2023-10-23T18:37:15.393Z,13.32
2023-10-23T18:39:46.167Z,13.24
2023-10-23T18:42:16.999Z,13.17
2023-10-23T18:44:47.810Z,13.15
2023-10-23T18:47:21.215Z,13.05
2023-10-23T18:49:52.691Z,12.97
2023-10-23T18:52:23.558Z,12.95
2023-10-23T18:54:54.565Z,12.93
2023-10-23T18:57:25.354Z,12.90
2023-10-23T18:59:56.109Z,12.92
2023-10-23T19:02:27.047Z,12.96
2023-10-23T19:04:58.121Z,13.01
2023-10-23T19:07:28.980Z,13.05
2023-10-23T19:10:00.379Z,13.05
2023-10-23T19:12:31.216Z,13.08
2023-10-23T19:15:02.153Z,13.06
2023-10-23T19:17:40.415Z,12.94
2023-10-23T19:20:14.209Z,12.78
2023-10-23T19:22:44.976Z,12.69
2023-10-23T19:25:15.927Z,12.62
2023-10-23T19:27:46.673Z,12.55
2023-10-23T19:30:17.978Z,12.48
2023-10-23T19:32:50.360Z,12.45
2023-10-23T19:35:22.896Z,12.48
2023-10-23T19:37:54.653Z,12.47
2023-10-23T19:40:27.978Z,12.47
2023-10-23T19:43:05.681Z,12.46
2023-10-23T19:45:37.830Z,12.43
2023-10-23T19:48:13.217Z,12.45
2023-10-23T19:50:48.760Z,12.46
2023-10-23T19:53:20.506Z,12.48
2023-10-23T19:55:53.337Z,12.53
2023-10-23T19:58:26.860Z,12.54
2023-10-23T20:00:57.828Z,12.45
2023-10-23T20:03:28.637Z,12.31
2023-10-23T20:05:59.450Z,12.19
2023-10-23T20:08:30.300Z,12.17
2023-10-23T20:11:01.633Z,12.28
2023-10-23T20:13:32.523Z,12.35
2023-10-23T20:16:05.900Z,12.37
2023-10-23T20:18:36.846Z,12.38
2023-10-23T20:21:07.818Z,12.35
2023-10-23T20:23:39.610Z,12.26
2023-10-23T20:26:16.672Z,12.18
2023-10-23T20:28:49.076Z,12.17
2023-10-23T20:31:23.209Z,12.10
2023-10-23T20:33:54.641Z,11.99
2023-10-23T20:36:25.669Z,11.87
2023-10-23T20:38:56.586Z,11.82
2023-10-23T20:41:27.397Z,11.80
2023-10-23T20:43:58.166Z,11.75
2023-10-23T20:46:29.719Z,11.73
2023-10-23T20:49:00.669Z,11.73
2023-10-23T20:51:31.509Z,11.75
2023-10-23T20:54:02.326Z,11.80
2023-10-23T20:56:33.096Z,11.75
2023-10-23T20:59:03.845Z,11.66
2023-10-23T21:01:34.960Z,11.62
2023-10-23T21:04:06.221Z,11.62
2023-10-23T21:06:37.030Z,11.61
2023-10-23T21:09:07.822Z,11.60
2023-10-23T21:11:38.595Z,11.58
2023-10-23T21:14:09.405Z,11.56
2023-10-23T21:16:40.281Z,11.59
2023-10-23T21:19:11.262Z,11.57
2023-10-23T21:21:44.416Z,11.50
2023-10-23T21:24:16.819Z,11.45
2023-10-23T21:26:47.589Z,11.38
2023-10-23T21:29:22.229Z,11.33
2023-10-23T21:31:54.798Z,11.29
2023-10-23T21:34:26.536Z,11.25
2023-10-23T21:36:57.375Z,11.23
2023-10-23T21:39:29.930Z,11.25
2023-10-23T21:42:03.263Z,11.27
2023-10-23T21:44:33.978Z,11.28
2023-10-23T21:47:04.992Z,11.29
2023-10-23T21:49:37.184Z,11.29
2023-10-23T21:52:09.981Z,11.27
2023-10-23T21:54:42.084Z,11.29
2023-10-23T21:57:22.983Z,11.25
2023-10-23T21:59:55.561Z,11.23
2023-10-23T22:02:27.502Z,11.25
2023-10-23T22:04:59.124Z,11.26
2023-10-23T22:07:30.718Z,11.24
2023-10-23T22:10:03.935Z,11.25
2023-10-23T22:12:35.782Z,11.20
2023-10-23T22:15:08.586Z,11.16
2023-10-23T22:17:39.473Z,11.08
2023-10-23T22:20:12.332Z,10.98
2023-10-23T22:22:43.447Z,10.84
2023-10-23T22:25:14.655Z,10.72
2023-10-23T22:27:45.431Z,10.66
2023-10-23T22:30:16.742Z,10.69
2023-10-23T22:32:57.172Z,10.73
2023-10-23T22:35:38.282Z,10.77
2023-10-23T22:38:09.688Z,10.85
2023-10-23T22:40:40.951Z,10.92
2023-10-23T22:43:12.910Z,10.99
2023-10-23T22:45:59.230Z,10.98
2023-10-23T22:48:33.767Z,10.99
2023-10-23T22:51:05.301Z,11.00
2023-10-23T22:53:38.387Z,10.96
2023-10-23T22:56:12.895Z,10.86
2023-10-23T22:58:44.510Z,10.78
2023-10-23T23:01:16.370Z,10.72
2023-10-23T23:03:48.216Z,10.63
2023-10-23T23:06:23.831Z,10.56
2023-10-23T23:08:57.812Z,10.52
2023-10-23T23:11:29.426Z,10.50
2023-10-23T23:14:00.935Z,10.50
2023-10-23T23:16:35.350Z,10.44
2023-10-23T23:19:10.199Z,10.42
2023-10-23T23:21:44.483Z,10.43
2023-10-23T23:24:15.208Z,10.44
2023-10-23T23:26:46.017Z,10.44
2023-10-23T23:29:16.800Z,10.42
2023-10-23T23:31:47.644Z,10.37
2023-10-23T23:34:18.592Z,10.41
2023-10-23T23:36:49.758Z,10.44
2023-10-23T23:39:20.486Z,10.45
2023-10-23T23:41:51.399Z,10.46
2023-10-23T23:44:22.214Z,10.41
2023-10-23T23:46:53.045Z,10.35
2023-10-23T23:49:23.918Z,10.35
2023-10-23T23:51:55.269Z,10.39
2023-10-23T23:54:26.079Z,10.41
2023-10-23T23:56:57.240Z,10.48
2023-10-23T23:59:27.942Z,10.49
